createdAt,value
2022-09-23T00:03:54.860Z,8.56
2022-09-23T00:08:57.001Z,8.54
2022-09-23T00:14:00.280Z,8.52
2022-09-23T00:19:09.621Z,8.51
2022-09-23T00:24:11.642Z,8.51
2022-09-23T00:29:13.724Z,8.50
2022-09-23T00:34:15.669Z,8.48
2022-09-23T00:39:17.585Z,8.44
2022-09-23T00:44:45.570Z,8.39
2022-09-23T00:49:50.171Z,8.32
2022-09-23T00:54:55.181Z,8.25
2022-09-23T00:59:58.002Z,8.17
2022-09-23T01:05:20.732Z,8.09
2022-09-23T01:10:56.477Z,8.02
2022-09-23T01:16:39.740Z,7.95
2022-09-23T01:22:21.927Z,7.90
2022-09-23T01:27:36.568Z,7.91
2022-09-23T01:32:47.295Z,7.94
2022-09-23T01:38:33.750Z,7.96
2022-09-23T01:43:53.205Z,7.97
2022-09-23T01:49:39.042Z,7.99
2022-09-23T01:54:57.394Z,8.00
2022-09-23T02:00:11.604Z,7.98
2022-09-23T02:05:20.322Z,7.99
2022-09-23T02:10:36.116Z,7.96
2022-09-23T02:15:45.863Z,7.94
2022-09-23T02:20:50.991Z,7.92
2022-09-23T02:26:08.901Z,7.92
2022-09-23T02:31:42.110Z,7.93
2022-09-23T02:37:16.636Z,7.97
2022-09-23T02:42:23.341Z,7.99
2022-09-23T02:47:31.471Z,8.03
2022-09-23T02:52:33.634Z,8.09
2022-09-23T02:57:35.785Z,8.16
2022-09-23T03:02:51.817Z,8.24
2022-09-23T03:08:25.786Z,8.29
2022-09-23T03:13:58.640Z,8.37
2022-09-23T03:19:40.653Z,8.42
2022-09-23T03:25:02.914Z,8.45
2022-09-23T03:30:07.265Z,8.46
2022-09-23T03:35:09.524Z,8.48
2022-09-23T03:40:17.483Z,8.47
2022-09-23T03:45:26.354Z,8.46
2022-09-23T03:50:28.791Z,8.42
2022-09-23T03:55:46.642Z,8.39
2022-09-23T04:00:57.783Z,8.36
2022-09-23T04:05:59.634Z,8.33
2022-09-23T04:11:04.352Z,8.30
2022-09-23T04:16:06.465Z,8.23
2022-09-23T04:21:08.285Z,8.22
2022-09-23T04:26:16.647Z,8.22
2022-09-23T04:31:29.306Z,8.20
2022-09-23T04:36:31.478Z,8.17
2022-09-23T04:41:39.703Z,8.11
2022-09-23T04:47:01.141Z,8.09
2022-09-23T04:52:05.460Z,8.09
2022-09-23T04:57:07.240Z,8.22
2022-09-23T05:02:09.340Z,8.53
2022-09-23T05:07:21.363Z,8.85
2022-09-23T05:12:24.257Z,9.08
2022-09-23T05:17:26.003Z,9.03
2022-09-23T05:22:30.051Z,8.86
2022-09-23T05:27:32.017Z,8.78
2022-09-23T05:32:33.863Z,8.79
2022-09-23T05:37:35.624Z,8.77
2022-09-23T05:42:37.405Z,8.71
2022-09-23T05:47:39.949Z,8.62
2022-09-23T05:52:41.708Z,8.51
2022-09-23T05:57:43.522Z,8.41
2022-09-23T06:02:47.519Z,8.51
2022-09-23T06:07:49.340Z,8.74
2022-09-23T06:12:51.180Z,8.96
2022-09-23T06:17:59.676Z,9.16
2022-09-23T06:23:11.284Z,9.35
2022-09-23T06:28:14.555Z,9.61
2022-09-23T06:33:18.724Z,9.82
2022-09-23T06:47:01.613Z,10.64
2022-09-23T06:52:03.461Z,10.96
2022-09-23T06:57:05.371Z,11.15
2022-09-23T07:02:07.618Z,11.40
2022-09-23T07:07:11.534Z,11.68
2022-09-23T07:12:14.002Z,11.95
2022-09-23T07:17:15.804Z,12.18
2022-09-23T07:22:18.658Z,12.42
2022-09-23T07:27:20.425Z,12.58
2022-09-23T07:32:23.067Z,12.63
2022-09-23T07:37:24.884Z,12.71
2022-09-23T07:42:26.628Z,12.93
2022-09-23T07:47:28.374Z,13.21
2022-09-23T07:52:30.208Z,13.57
2022-09-23T07:57:32.975Z,13.84
2022-09-23T08:02:54.978Z,13.94
2022-09-23T08:07:56.954Z,14.26
2022-09-23T08:13:01.065Z,14.77
2022-09-23T08:18:02.955Z,15.30
2022-09-23T08:23:04.723Z,15.63
2022-09-23T08:28:06.878Z,15.65
2022-09-23T08:33:08.653Z,15.52
2022-09-23T08:38:10.616Z,15.65
2022-09-23T08:43:40.746Z,16.02
2022-09-23T08:48:46.378Z,16.70
2022-09-23T08:53:48.174Z,17.31
2022-09-23T08:59:14.833Z,17.64
2022-09-23T09:04:40.603Z,18.09
2022-09-23T09:10:21.304Z,18.39
2022-09-23T09:15:29.069Z,18.18
2022-09-23T09:20:39.716Z,18.06
2022-09-23T09:25:45.033Z,18.60
2022-09-23T09:30:52.595Z,19.04
2022-09-23T09:36:36.082Z,18.42
2022-09-23T09:41:41.897Z,17.57
2022-09-23T09:46:52.917Z,17.03
2022-09-23T09:52:15.920Z,17.09
2022-09-23T09:57:39.754Z,17.93
2022-09-23T10:02:41.845Z,18.31
2022-09-23T10:07:43.674Z,18.62
2022-09-23T10:12:47.113Z,18.50
2022-09-23T10:17:50.299Z,18.95
2022-09-23T10:22:56.866Z,19.53
2022-09-23T10:27:58.603Z,19.85
2022-09-23T10:33:34.731Z,19.80
2022-09-23T10:38:55.300Z,19.43
2022-09-23T10:44:41.420Z,19.01
2022-09-23T10:50:03.976Z,18.43
2022-09-23T10:55:19.395Z,17.82
2022-09-23T11:01:04.460Z,17.32
2022-09-23T11:06:49.739Z,16.88
2022-09-23T11:12:24.214Z,17.42
2022-09-23T11:17:45.881Z,18.32
2022-09-23T11:23:13.957Z,19.15
2022-09-23T11:29:02.429Z,20.00
2022-09-23T11:34:35.040Z,20.75
2022-09-23T11:39:40.368Z,21.24
2022-09-23T11:44:49.989Z,21.43
2022-09-23T11:50:00.406Z,21.09
2022-09-23T11:55:22.690Z,20.37
2022-09-23T12:00:30.164Z,19.73
2022-09-23T12:05:35.346Z,19.90
2022-09-23T12:10:56.254Z,20.06
2022-09-23T12:16:16.938Z,19.57
2022-09-23T12:21:51.523Z,19.86
2022-09-23T12:26:59.378Z,20.61
2022-09-23T12:32:05.501Z,21.25
2022-09-23T12:37:07.379Z,21.84
2022-09-23T12:42:17.231Z,22.02
2022-09-23T12:47:25.054Z,21.05
2022-09-23T12:52:33.499Z,20.14
2022-09-23T12:57:35.378Z,19.64
2022-09-23T13:03:21.079Z,19.21
2022-09-23T13:08:25.188Z,19.11
2022-09-23T13:13:31.740Z,19.45
2022-09-23T13:18:48.977Z,19.87
2022-09-23T13:24:19.681Z,20.27
2022-09-23T13:29:33.346Z,20.57
2022-09-23T13:34:41.680Z,20.76
2022-09-23T13:39:50.660Z,20.83
2022-09-23T13:45:00.455Z,20.30
2022-09-23T13:50:02.992Z,19.96
2022-09-23T13:55:05.627Z,19.80
2022-09-23T14:00:21.353Z,19.80
2022-09-23T14:05:26.377Z,19.94
2022-09-23T14:10:28.494Z,19.92
2022-09-23T14:15:31.127Z,19.57
2022-09-23T14:20:34.416Z,19.21
2022-09-23T14:25:37.066Z,19.05
2022-09-23T14:30:39.535Z,19.10
2022-09-23T14:35:46.546Z,19.24
2022-09-23T14:41:15.292Z,19.33
2022-09-23T14:46:20.407Z,19.43
2022-09-23T14:51:29.621Z,19.81
2022-09-23T14:56:42.216Z,20.19
2022-09-23T15:01:43.963Z,19.98
2022-09-23T15:07:07.622Z,19.71
2022-09-23T15:12:15.740Z,19.64
2022-09-23T15:17:30.679Z,19.30
2022-09-23T15:22:46.477Z,19.21
2022-09-23T15:27:59.215Z,19.32
2022-09-23T15:33:01.211Z,19.35
2022-09-23T15:38:03.271Z,19.37
2022-09-23T15:43:30.770Z,19.44
2022-09-23T15:48:46.017Z,19.19
2022-09-23T15:53:48.044Z,18.91
2022-09-23T15:58:50.321Z,18.87
2022-09-23T16:03:52.537Z,18.89
2022-09-23T16:08:54.758Z,18.84
2022-09-23T16:13:56.687Z,18.61
2022-09-23T16:18:58.509Z,18.11
2022-09-23T16:24:28.063Z,17.47
2022-09-23T16:29:30.368Z,16.67
2022-09-23T16:34:34.831Z,16.05
2022-09-23T16:39:36.542Z,15.42
2022-09-23T16:44:41.476Z,14.91
2022-09-23T16:49:43.345Z,14.46
2022-09-23T16:54:47.872Z,14.05
2022-09-23T17:00:09.001Z,13.62
2022-09-23T17:05:13.130Z,13.12
2022-09-23T17:10:18.816Z,12.67
2022-09-23T17:15:21.981Z,12.29
2022-09-23T17:20:23.878Z,12.02
2022-09-23T17:25:26.679Z,12.03
2022-09-23T17:30:28.936Z,11.91
2022-09-23T17:35:30.843Z,11.74
2022-09-23T17:40:33.187Z,11.58
2022-09-23T17:45:38.418Z,11.41
2022-09-23T17:50:40.370Z,11.24
2022-09-23T17:55:42.186Z,11.08
2022-09-23T18:00:46.528Z,10.92
2022-09-23T18:05:48.560Z,10.80
2022-09-23T18:10:50.454Z,10.66
2022-09-23T18:15:52.234Z,10.54
2022-09-23T18:21:00.205Z,10.40
2022-09-23T18:26:02.119Z,10.29
2022-09-23T18:31:04.194Z,10.17
2022-09-23T18:36:07.322Z,10.03
2022-09-23T18:41:09.498Z,9.84
2022-09-23T18:46:14.465Z,9.53
2022-09-23T18:51:18.239Z,9.35
2022-09-23T18:56:21.262Z,9.27
2022-09-23T19:01:24.705Z,9.28
2022-09-23T19:06:29.008Z,9.34
2022-09-23T19:11:32.212Z,9.39
2022-09-23T19:16:35.712Z,9.40
2022-09-23T19:21:37.518Z,9.40
2022-09-23T19:26:40.920Z,9.43
2022-09-23T19:31:43.901Z,9.42
2022-09-23T19:36:48.153Z,9.38
2022-09-23T19:41:51.350Z,9.35
2022-09-23T19:46:57.070Z,9.36
2022-09-23T19:51:59.307Z,9.41
2022-09-23T19:57:01.401Z,9.39
2022-09-23T20:02:03.738Z,9.39
2022-09-23T20:07:05.633Z,9.38
2022-09-23T20:12:07.541Z,9.37
2022-09-23T20:17:09.285Z,9.31
2022-09-23T20:22:33.493Z,9.29
2022-09-23T20:27:35.492Z,9.24
2022-09-23T20:32:44.022Z,9.17
2022-09-23T20:37:46.557Z,9.05
2022-09-23T20:42:59.031Z,8.87
2022-09-23T20:48:03.263Z,8.72
2022-09-23T20:53:05.011Z,8.65
2022-09-23T20:58:06.745Z,8.58
2022-09-23T21:03:09.442Z,8.53
2022-09-23T21:08:11.181Z,8.48
2022-09-23T21:13:13.079Z,8.44
2022-09-23T21:18:19.190Z,8.45
2022-09-23T21:23:26.202Z,8.50
2022-09-23T21:28:33.215Z,8.48
2022-09-23T21:33:37.620Z,8.44
2022-09-23T21:38:39.575Z,8.45
2022-09-23T21:43:41.600Z,8.43
2022-09-23T21:48:43.696Z,8.50
2022-09-23T21:53:46.625Z,8.59
2022-09-23T21:58:49.674Z,8.69
2022-09-23T22:03:54.464Z,8.78
2022-09-23T22:09:01.413Z,8.81
2022-09-23T22:14:05.822Z,8.87
2022-09-23T22:19:08.945Z,8.92
2022-09-23T22:24:12.694Z,8.96
2022-09-23T22:29:34.551Z,9.01
2022-09-23T22:34:56.845Z,9.06
2022-09-23T22:40:14.319Z,9.16
2022-09-23T22:45:18.861Z,9.25
2022-09-23T22:50:20.617Z,9.29
2022-09-23T22:55:22.564Z,9.26
2022-09-23T23:00:24.330Z,9.26
2022-09-23T23:05:26.041Z,9.28
2022-09-23T23:10:28.157Z,9.32
2022-09-23T23:15:30.569Z,9.36
2022-09-23T23:20:32.786Z,9.36
2022-09-23T23:25:34.779Z,9.32
2022-09-23T23:30:36.578Z,9.34
2022-09-23T23:35:38.793Z,9.34
2022-09-23T23:40:40.609Z,9.33
2022-09-23T23:45:43.683Z,9.37
2022-09-23T23:50:56.542Z,9.37
2022-09-23T23:56:02.258Z,9.34
